sensor_id;sensor_type;location;lat;lon;timestamp;P1;durP1;ratioP1;P2;durP2;ratioP2
51515;SDS011;37603;55.614;37.326;2023-02-26T00:05:07;46.9;;;29.2;;
51515;SDS011;37603;55.614;37.326;2023-02-26T00:11:05;41.4;;;26.8;;
51515;SDS011;37603;55.614;37.326;2023-02-26T00:17:08;36.7;;;24.6;;
51515;SDS011;37603;55.614;37.326;2023-02-26T00:23:03;30.2;;;22.1;;
51515;SDS011;37603;55.614;37.326;2023-02-26T00:29:02;28.6;;;19.9;;
51515;SDS011;37603;55.614;37.326;2023-02-26T00:35:00;26.1;;;18.9;;
51515;SDS011;37603;55.614;37.326;2023-02-26T00:40:59;23.6;;;16.8;;
51515;SDS011;37603;55.614;37.326;2023-02-26T00:46:59;20.0;;;15.1;;
51515;SDS011;37603;55.614;37.326;2023-02-26T00:52:59;18.0;;;12.6;;
51515;SDS011;37603;55.614;37.326;2023-02-26T00:58:55;18.1;;;13.1;;
51515;SDS011;37603;55.614;37.326;2023-02-26T01:04:54;15.2;;;11.3;;
51515;SDS011;37603;55.614;37.326;2023-02-26T01:10:52;14.8;;;10.9;;
51515;SDS011;37603;55.614;37.326;2023-02-26T01:16:52;13.0;;;10.0;;
51515;SDS011;37603;55.614;37.326;2023-02-26T01:22:51;13.9;;;9.7;;
51515;SDS011;37603;55.614;37.326;2023-02-26T01:28:48;12.2;;;9.3;;
51515;SDS011;37603;55.614;37.326;2023-02-26T01:34:48;11.1;;;8.9;;
51515;SDS011;37603;55.614;37.326;2023-02-26T01:40:56;11.4;;;9.0;;
51515;SDS011;37603;55.614;37.326;2023-02-26T01:46:50;11.0;;;8.6;;
51515;SDS011;37603;55.614;37.326;2023-02-26T01:58:42;10.5;;;7.7;;
51515;SDS011;37603;55.614;37.326;2023-02-26T02:04:41;9.9;;;7.7;;
51515;SDS011;37603;55.614;37.326;2023-02-26T02:10:40;8.6;;;7.1;;
51515;SDS011;37603;55.614;37.326;2023-02-26T02:16:40;9.6;;;7.5;;
51515;SDS011;37603;55.614;37.326;2023-02-26T02:22:39;9.0;;;7.4;;
51515;SDS011;37603;55.614;37.326;2023-02-26T02:28:39;8.5;;;7.1;;
51515;SDS011;37603;55.614;37.326;2023-02-26T02:34:36;8.0;;;7.0;;
51515;SDS011;37603;55.614;37.326;2023-02-26T02:40:34;7.3;;;6.3;;
51515;SDS011;37603;55.614;37.326;2023-02-26T02:46:34;8.2;;;6.0;;
51515;SDS011;37603;55.614;37.326;2023-02-26T02:52:32;6.7;;;6.0;;
51515;SDS011;37603;55.614;37.326;2023-02-26T02:58:30;6.1;;;5.5;;
51515;SDS011;37603;55.614;37.326;2023-02-26T03:04:29;6.5;;;5.6;;
51515;SDS011;37603;55.614;37.326;2023-02-26T03:10:27;7.1;;;6.1;;
51515;SDS011;37603;55.614;37.326;2023-02-26T03:16:30;5.6;;;5.0;;
51515;SDS011;37603;55.614;37.326;2023-02-26T03:22:27;6.7;;;5.7;;
51515;SDS011;37603;55.614;37.326;2023-02-26T03:28:24;6.8;;;6.1;;
51515;SDS011;37603;55.614;37.326;2023-02-26T03:34:24;6.5;;;5.8;;
51515;SDS011;37603;55.614;37.326;2023-02-26T03:40:23;6.8;;;6.1;;
51515;SDS011;37603;55.614;37.326;2023-02-26T03:52:19;7.8;;;6.4;;
51515;SDS011;37603;55.614;37.326;2023-02-26T03:58:17;6.0;;;5.4;;
51515;SDS011;37603;55.614;37.326;2023-02-26T04:04:17;7.1;;;6.2;;
51515;SDS011;37603;55.614;37.326;2023-02-26T04:10:15;8.1;;;6.6;;
51515;SDS011;37603;55.614;37.326;2023-02-26T04:16:14;7.5;;;6.7;;
51515;SDS011;37603;55.614;37.326;2023-02-26T04:22:12;7.0;;;5.7;;
51515;SDS011;37603;55.614;37.326;2023-02-26T04:28:11;6.7;;;4.9;;
51515;SDS011;37603;55.614;37.326;2023-02-26T04:34:10;5.0;;;4.4;;
51515;SDS011;37603;55.614;37.326;2023-02-26T04:40:09;3.5;;;3.2;;
51515;SDS011;37603;55.614;37.326;2023-02-26T04:46:07;3.7;;;2.7;;
51515;SDS011;37603;55.614;37.326;2023-02-26T04:52:06;2.8;;;2.0;;
51515;SDS011;37603;55.614;37.326;2023-02-26T04:58:05;2.5;;;1.9;;
51515;SDS011;37603;55.614;37.326;2023-02-26T05:04:03;2.0;;;1.6;;
51515;SDS011;37603;55.614;37.326;2023-02-26T05:10:02;1.6;;;1.5;;
51515;SDS011;37603;55.614;37.326;2023-02-26T05:16:01;1.7;;;1.3;;
51515;SDS011;37603;55.614;37.326;2023-02-26T05:21:59;2.6;;;1.3;;
51515;SDS011;37603;55.614;37.326;2023-02-26T05:27:58;1.7;;;0.9;;
51515;SDS011;37603;55.614;37.326;2023-02-26T05:33:57;1.3;;;1.1;;
51515;SDS011;37603;55.614;37.326;2023-02-26T05:39:56;1.1;;;1.0;;
51515;SDS011;37603;55.614;37.326;2023-02-26T05:45:55;1.8;;;1.1;;
51515;SDS011;37603;55.614;37.326;2023-02-26T05:51:53;1.6;;;1.2;;
51515;SDS011;37603;55.614;37.326;2023-02-26T05:57:52;1.2;;;1.1;;
51515;SDS011;37603;55.614;37.326;2023-02-26T06:03:51;2.6;;;1.0;;
51515;SDS011;37603;55.614;37.326;2023-02-26T06:09:49;1.4;;;1.1;;
51515;SDS011;37603;55.614;37.326;2023-02-26T06:15:48;2.3;;;1.2;;
51515;SDS011;37603;55.614;37.326;2023-02-26T06:21:47;1.9;;;1.3;;
51515;SDS011;37603;55.614;37.326;2023-02-26T06:27:46;1.5;;;1.4;;
51515;SDS011;37603;55.614;37.326;2023-02-26T06:33:44;1.9;;;1.5;;
51515;SDS011;37603;55.614;37.326;2023-02-26T09:53:36;3.2;;;1.8;;
51515;SDS011;37603;55.614;37.326;2023-02-26T09:59:33;3.0;;;1.4;;
51515;SDS011;37603;55.614;37.326;2023-02-26T10:05:34;2.6;;;1.4;;
51515;SDS011;37603;55.614;37.326;2023-02-26T10:11:32;2.7;;;1.3;;
51515;SDS011;37603;55.614;37.326;2023-02-26T10:17:34;1.7;;;1.2;;
51515;SDS011;37603;55.614;37.326;2023-02-26T10:23:31;1.9;;;1.7;;
51515;SDS011;37603;55.614;37.326;2023-02-26T10:29:29;2.3;;;1.4;;
51515;SDS011;37603;55.614;37.326;2023-02-26T10:35:26;1.8;;;1.4;;
51515;SDS011;37603;55.614;37.326;2023-02-26T10:41:24;1.5;;;1.2;;
51515;SDS011;37603;55.614;37.326;2023-02-26T10:47:26;2.3;;;1.2;;
51515;SDS011;37603;55.614;37.326;2023-02-26T10:59:20;3.4;;;2.0;;
51515;SDS011;37603;55.614;37.326;2023-02-26T11:05:20;2.1;;;1.6;;
51515;SDS011;37603;55.614;37.326;2023-02-26T11:17:17;1.9;;;1.5;;
51515;SDS011;37603;55.614;37.326;2023-02-26T11:23:17;2.8;;;1.8;;
51515;SDS011;37603;55.614;37.326;2023-02-26T11:35:14;3.8;;;1.7;;
51515;SDS011;37603;55.614;37.326;2023-02-26T11:41:12;3.7;;;2.8;;
51515;SDS011;37603;55.614;37.326;2023-02-26T11:47:11;2.9;;;2.3;;
51515;SDS011;37603;55.614;37.326;2023-02-26T11:53:15;1.6;;;1.3;;
51515;SDS011;37603;55.614;37.326;2023-02-26T11:59:15;2.3;;;1.6;;
51515;SDS011;37603;55.614;37.326;2023-02-26T12:05:09;2.4;;;1.5;;
51515;SDS011;37603;55.614;37.326;2023-02-26T12:11:11;2.2;;;1.6;;
51515;SDS011;37603;55.614;37.326;2023-02-26T12:17:12;2.5;;;2.1;;
51515;SDS011;37603;55.614;37.326;2023-02-26T12:23:09;2.6;;;2.2;;
51515;SDS011;37603;55.614;37.326;2023-02-26T12:35:05;3.8;;;2.7;;
51515;SDS011;37603;55.614;37.326;2023-02-26T12:47:03;3.2;;;2.8;;
51515;SDS011;37603;55.614;37.326;2023-02-26T12:53:02;4.6;;;3.3;;
51515;SDS011;37603;55.614;37.326;2023-02-26T12:58:59;4.0;;;3.6;;
51515;SDS011;37603;55.614;37.326;2023-02-26T13:05:00;4.4;;;3.9;;
51515;SDS011;37603;55.614;37.326;2023-02-26T13:10:57;5.0;;;4.3;;
51515;SDS011;37603;55.614;37.326;2023-02-26T13:16:53;5.1;;;4.4;;
51515;SDS011;37603;55.614;37.326;2023-02-26T13:22:52;5.7;;;4.4;;
51515;SDS011;37603;55.614;37.326;2023-02-26T13:28:51;4.7;;;4.2;;
51515;SDS011;37603;55.614;37.326;2023-02-26T13:34:49;6.5;;;5.1;;
51515;SDS011;37603;55.614;37.326;2023-02-26T13:40:50;6.8;;;5.3;;
51515;SDS011;37603;55.614;37.326;2023-02-26T13:46:53;6.9;;;6.2;;
51515;SDS011;37603;55.614;37.326;2023-02-26T13:52:49;8.6;;;7.2;;
51515;SDS011;37603;55.614;37.326;2023-02-26T13:58:46;8.3;;;7.4;;
51515;SDS011;37603;55.614;37.326;2023-02-26T14:04:48;7.2;;;6.5;;
51515;SDS011;37603;55.614;37.326;2023-02-26T14:10:43;7.8;;;6.3;;
51515;SDS011;37603;55.614;37.326;2023-02-26T14:16:40;7.6;;;6.8;;
51515;SDS011;37603;55.614;37.326;2023-02-26T14:22:40;8.5;;;7.3;;
51515;SDS011;37603;55.614;37.326;2023-02-26T14:28:52;8.6;;;7.6;;
51515;SDS011;37603;55.614;37.326;2023-02-26T14:34:36;8.5;;;7.5;;
51515;SDS011;37603;55.614;37.326;2023-02-26T14:40:35;7.8;;;7.0;;
51515;SDS011;37603;55.614;37.326;2023-02-26T14:46:33;9.7;;;8.4;;
51515;SDS011;37603;55.614;37.326;2023-02-26T14:52:36;8.2;;;7.4;;
51515;SDS011;37603;55.614;37.326;2023-02-26T14:58:36;10.8;;;8.1;;
51515;SDS011;37603;55.614;37.326;2023-02-26T15:10:31;11.0;;;9.3;;
51515;SDS011;37603;55.614;37.326;2023-02-26T15:16:29;11.2;;;9.6;;
51515;SDS011;37603;55.614;37.326;2023-02-26T15:22:38;10.0;;;8.6;;
51515;SDS011;37603;55.614;37.326;2023-02-26T15:28:25;11.1;;;9.0;;
51515;SDS011;37603;55.614;37.326;2023-02-26T15:34:22;10.3;;;8.8;;
51515;SDS011;37603;55.614;37.326;2023-02-26T15:40:21;9.8;;;8.4;;
51515;SDS011;37603;55.614;37.326;2023-02-26T15:46:22;14.8;;;12.2;;
51515;SDS011;37603;55.614;37.326;2023-02-26T15:52:19;12.9;;;10.6;;
51515;SDS011;37603;55.614;37.326;2023-02-26T15:58:19;12.2;;;10.1;;
51515;SDS011;37603;55.614;37.326;2023-02-26T16:04:16;13.8;;;11.6;;
51515;SDS011;37603;55.614;37.326;2023-02-26T16:10:15;14.8;;;11.2;;
51515;SDS011;37603;55.614;37.326;2023-02-26T16:16:14;13.9;;;11.6;;
51515;SDS011;37603;55.614;37.326;2023-02-26T16:22:14;13.3;;;10.9;;
51515;SDS011;37603;55.614;37.326;2023-02-26T16:28:12;12.6;;;9.2;;
51515;SDS011;37603;55.614;37.326;2023-02-26T16:40:11;13.2;;;11.2;;
51515;SDS011;37603;55.614;37.326;2023-02-26T16:46:06;10.0;;;5.2;;
51515;SDS011;37603;55.614;37.326;2023-02-26T16:58:05;11.9;;;8.7;;
51515;SDS011;37603;55.614;37.326;2023-02-26T17:04:02;12.9;;;9.6;;
51515;SDS011;37603;55.614;37.326;2023-02-26T17:10:05;12.6;;;8.6;;
51515;SDS011;37603;55.614;37.326;2023-02-26T17:16:00;9.0;;;5.1;;
51515;SDS011;37603;55.614;37.326;2023-02-26T17:21:58;14.0;;;10.4;;
51515;SDS011;37603;55.614;37.326;2023-02-26T17:27:57;38.0;;;22.2;;
51515;SDS011;37603;55.614;37.326;2023-02-26T17:33:55;11.7;;;9.2;;
51515;SDS011;37603;55.614;37.326;2023-02-26T17:39:54;10.8;;;8.6;;
51515;SDS011;37603;55.614;37.326;2023-02-26T17:45:52;11.1;;;8.9;;
51515;SDS011;37603;55.614;37.326;2023-02-26T17:51:51;9.0;;;4.8;;
51515;SDS011;37603;55.614;37.326;2023-02-26T17:57:50;10.1;;;4.9;;
51515;SDS011;37603;55.614;37.326;2023-02-26T18:03:48;10.3;;;7.8;;
51515;SDS011;37603;55.614;37.326;2023-02-26T18:09:47;12.6;;;9.1;;
51515;SDS011;37603;55.614;37.326;2023-02-26T18:15:46;12.3;;;8.9;;
51515;SDS011;37603;55.614;37.326;2023-02-26T18:21:44;8.7;;;6.7;;
51515;SDS011;37603;55.614;37.326;2023-02-26T18:27:43;9.1;;;7.0;;
51515;SDS011;37603;55.614;37.326;2023-02-26T18:33:42;6.4;;;3.2;;
51515;SDS011;37603;55.614;37.326;2023-02-26T18:39:40;7.0;;;3.4;;
51515;SDS011;37603;55.614;37.326;2023-02-26T18:45:39;8.1;;;6.6;;
51515;SDS011;37603;55.614;37.326;2023-02-26T18:51:37;7.0;;;3.4;;
51515;SDS011;37603;55.614;37.326;2023-02-26T18:57:36;7.5;;;6.0;;
51515;SDS011;37603;55.614;37.326;2023-02-26T19:03:34;8.1;;;3.2;;
51515;SDS011;37603;55.614;37.326;2023-02-26T19:09:33;8.7;;;6.4;;
51515;SDS011;37603;55.614;37.326;2023-02-26T19:15:32;6.5;;;3.2;;
51515;SDS011;37603;55.614;37.326;2023-02-26T19:21:31;6.7;;;3.4;;
51515;SDS011;37603;55.614;37.326;2023-02-26T19:27:29;7.6;;;6.3;;
51515;SDS011;37603;55.614;37.326;2023-02-26T19:33:28;6.4;;;3.2;;
51515;SDS011;37603;55.614;37.326;2023-02-26T19:45:25;7.2;;;6.4;;
51515;SDS011;37603;55.614;37.326;2023-02-26T19:51:23;4.9;;;3.1;;
51515;SDS011;37603;55.614;37.326;2023-02-26T19:57:22;6.2;;;3.0;;
51515;SDS011;37603;55.614;37.326;2023-02-26T20:03:21;7.8;;;3.5;;
51515;SDS011;37603;55.614;37.326;2023-02-26T20:15:18;6.1;;;3.0;;
51515;SDS011;37603;55.614;37.326;2023-02-26T20:21:16;5.2;;;2.8;;
51515;SDS011;37603;55.614;37.326;2023-02-26T20:27:15;6.9;;;3.1;;
51515;SDS011;37603;55.614;37.326;2023-02-26T20:33:14;6.8;;;5.6;;
51515;SDS011;37603;55.614;37.326;2023-02-26T20:39:12;7.5;;;5.8;;
51515;SDS011;37603;55.614;37.326;2023-02-26T20:45:11;8.0;;;3.5;;
51515;SDS011;37603;55.614;37.326;2023-02-26T20:51:10;6.8;;;5.5;;
51515;SDS011;37603;55.614;37.326;2023-02-26T20:57:08;6.1;;;5.2;;
51515;SDS011;37603;55.614;37.326;2023-02-26T21:03:07;5.9;;;5.0;;
51515;SDS011;37603;55.614;37.326;2023-02-26T21:09:05;5.0;;;2.6;;
51515;SDS011;37603;55.614;37.326;2023-02-26T21:15:05;4.5;;;2.2;;
51515;SDS011;37603;55.614;37.326;2023-02-26T21:21:03;4.7;;;2.5;;
51515;SDS011;37603;55.614;37.326;2023-02-26T21:27:01;3.9;;;2.4;;
51515;SDS011;37603;55.614;37.326;2023-02-26T21:33:00;4.8;;;2.3;;
51515;SDS011;37603;55.614;37.326;2023-02-26T21:38:59;3.8;;;2.1;;
51515;SDS011;37603;55.614;37.326;2023-02-26T21:44:57;5.8;;;4.7;;
51515;SDS011;37603;55.614;37.326;2023-02-26T21:50:56;5.4;;;4.7;;
51515;SDS011;37603;55.614;37.326;2023-02-26T21:56:54;5.3;;;2.4;;
51515;SDS011;37603;55.614;37.326;2023-02-26T22:02:53;3.7;;;2.2;;
51515;SDS011;37603;55.614;37.326;2023-02-26T22:08:52;5.5;;;2.7;;
51515;SDS011;37603;55.614;37.326;2023-02-26T22:14:50;4.8;;;2.1;;
51515;SDS011;37603;55.614;37.326;2023-02-26T22:20:49;4.9;;;2.4;;
51515;SDS011;37603;55.614;37.326;2023-02-26T22:26:47;5.4;;;2.5;;
51515;SDS011;37603;55.614;37.326;2023-02-26T22:32:46;5.6;;;4.9;;
51515;SDS011;37603;55.614;37.326;2023-02-26T22:38:45;4.1;;;2.4;;
51515;SDS011;37603;55.614;37.326;2023-02-26T22:44:43;5.1;;;4.6;;
51515;SDS011;37603;55.614;37.326;2023-02-26T22:50:42;4.9;;;2.7;;
51515;SDS011;37603;55.614;37.326;2023-02-26T22:56:40;4.8;;;2.4;;
51515;SDS011;37603;55.614;37.326;2023-02-26T23:02:39;5.6;;;4.9;;
51515;SDS011;37603;55.614;37.326;2023-02-26T23:08:38;5.7;;;2.4;;
51515;SDS011;37603;55.614;37.326;2023-02-26T23:14:36;4.7;;;2.6;;
51515;SDS011;37603;55.614;37.326;2023-02-26T23:20:35;6.9;;;5.1;;
51515;SDS011;37603;55.614;37.326;2023-02-26T23:26:33;6.5;;;2.4;;
51515;SDS011;37603;55.614;37.326;2023-02-26T23:32:32;4.8;;;2.5;;
51515;SDS011;37603;55.614;37.326;2023-02-26T23:38:31;4.9;;;2.5;;
51515;SDS011;37603;55.614;37.326;2023-02-26T23:44:29;7.1;;;5.0;;
51515;SDS011;37603;55.614;37.326;2023-02-26T23:50:28;6.1;;;2.7;;
51515;SDS011;37603;55.614;37.326;2023-02-26T23:56:26;5.4;;;2.3;;
